sensor_id;sensor_type;location;lat;lon;timestamp;temperature;humidity
44843;DHT22;31884;52.538;13.820;2023-05-09T00:01:32;8.00;75.30
44843;DHT22;31884;52.538;13.820;2023-05-09T00:03:59;8.00;74.90
44843;DHT22;31884;52.538;13.820;2023-05-09T00:06:25;7.90;75.00
44843;DHT22;31884;52.538;13.820;2023-05-09T00:08:55;7.90;74.90
44843;DHT22;31884;52.538;13.820;2023-05-09T00:11:21;7.90;75.90
44843;DHT22;31884;52.538;13.820;2023-05-09T00:13:47;7.90;76.00
44843;DHT22;31884;52.538;13.820;2023-05-09T00:16:13;7.90;76.20
44843;DHT22;31884;52.538;13.820;2023-05-09T00:18:40;7.90;75.20
44843;DHT22;31884;52.538;13.820;2023-05-09T00:21:07;7.80;75.70
44843;DHT22;31884;52.538;13.820;2023-05-09T00:23:33;7.80;75.90
44843;DHT22;31884;52.538;13.820;2023-05-09T00:25:59;7.70;76.60
44843;DHT22;31884;52.538;13.820;2023-05-09T00:28:25;7.70;77.00
44843;DHT22;31884;52.538;13.820;2023-05-09T00:30:50;7.80;76.90
44843;DHT22;31884;52.538;13.820;2023-05-09T00:33:16;7.70;76.20
44843;DHT22;31884;52.538;13.820;2023-05-09T00:35:41;7.70;76.10
44843;DHT22;31884;52.538;13.820;2023-05-09T00:38:07;7.60;77.80
44843;DHT22;31884;52.538;13.820;2023-05-09T00:40:32;7.60;79.20
44843;DHT22;31884;52.538;13.820;2023-05-09T00:42:58;7.50;78.30
44843;DHT22;31884;52.538;13.820;2023-05-09T00:45:24;7.50;78.50
44843;DHT22;31884;52.538;13.820;2023-05-09T00:47:50;7.50;78.50
44843;DHT22;31884;52.538;13.820;2023-05-09T00:50:15;7.40;80.60
44843;DHT22;31884;52.538;13.820;2023-05-09T00:52:41;7.40;80.00
44843;DHT22;31884;52.538;13.820;2023-05-09T00:55:07;7.40;80.90
44843;DHT22;31884;52.538;13.820;2023-05-09T00:57:33;7.40;80.30
44843;DHT22;31884;52.538;13.820;2023-05-09T00:59:59;7.30;81.30
44843;DHT22;31884;52.538;13.820;2023-05-09T01:02:25;7.30;82.10
44843;DHT22;31884;52.538;13.820;2023-05-09T01:04:52;7.30;81.90
44843;DHT22;31884;52.538;13.820;2023-05-09T01:10:15;7.20;82.20
44843;DHT22;31884;52.538;13.820;2023-05-09T01:15:53;7.10;82.70
44843;DHT22;31884;52.538;13.820;2023-05-09T01:21:01;7.00;83.60
44843;DHT22;31884;52.538;13.820;2023-05-09T01:26:05;7.00;84.60
44843;DHT22;31884;52.538;13.820;2023-05-09T01:31:34;7.00;84.30
44843;DHT22;31884;52.538;13.820;2023-05-09T01:34:03;6.90;84.10
44843;DHT22;31884;52.538;13.820;2023-05-09T01:36:31;6.90;82.60
44843;DHT22;31884;52.538;13.820;2023-05-09T01:39:01;6.90;83.00
44843;DHT22;31884;52.538;13.820;2023-05-09T01:41:29;6.80;82.60
44843;DHT22;31884;52.538;13.820;2023-05-09T01:43:58;6.80;83.70
44843;DHT22;31884;52.538;13.820;2023-05-09T01:46:26;6.80;83.60
44843;DHT22;31884;52.538;13.820;2023-05-09T01:48:53;6.80;83.60
44843;DHT22;31884;52.538;13.820;2023-05-09T01:51:19;6.70;84.60
44843;DHT22;31884;52.538;13.820;2023-05-09T01:53:47;6.80;85.40
44843;DHT22;31884;52.538;13.820;2023-05-09T01:56:14;6.80;84.80
44843;DHT22;31884;52.538;13.820;2023-05-09T01:58:40;6.70;85.60
44843;DHT22;31884;52.538;13.820;2023-05-09T02:01:06;6.70;85.10
44843;DHT22;31884;52.538;13.820;2023-05-09T02:03:33;6.70;85.50
44843;DHT22;31884;52.538;13.820;2023-05-09T02:06:02;6.70;85.40
44843;DHT22;31884;52.538;13.820;2023-05-09T02:08:29;6.60;86.50
44843;DHT22;31884;52.538;13.820;2023-05-09T02:10:55;6.60;86.20
44843;DHT22;31884;52.538;13.820;2023-05-09T02:13:21;6.60;85.80
44843;DHT22;31884;52.538;13.820;2023-05-09T02:15:46;6.60;85.70
44843;DHT22;31884;52.538;13.820;2023-05-09T02:18:12;6.50;85.80
44843;DHT22;31884;52.538;13.820;2023-05-09T02:20:38;6.50;84.80
44843;DHT22;31884;52.538;13.820;2023-05-09T02:23:04;6.50;84.80
44843;DHT22;31884;52.538;13.820;2023-05-09T02:25:31;6.50;84.30
44843;DHT22;31884;52.538;13.820;2023-05-09T02:27:57;6.40;83.70
44843;DHT22;31884;52.538;13.820;2023-05-09T02:30:25;6.40;85.70
44843;DHT22;31884;52.538;13.820;2023-05-09T02:32:55;6.40;85.70
44843;DHT22;31884;52.538;13.820;2023-05-09T02:35:21;6.30;83.80
44843;DHT22;31884;52.538;13.820;2023-05-09T02:37:50;6.30;84.80
44843;DHT22;31884;52.538;13.820;2023-05-09T02:40:17;6.20;85.10
44843;DHT22;31884;52.538;13.820;2023-05-09T02:42:43;6.20;84.70
44843;DHT22;31884;52.538;13.820;2023-05-09T02:45:09;6.20;85.10
44843;DHT22;31884;52.538;13.820;2023-05-09T02:47:38;6.10;86.00
44843;DHT22;31884;52.538;13.820;2023-05-09T02:50:04;6.10;85.10
44843;DHT22;31884;52.538;13.820;2023-05-09T02:52:29;6.00;86.00
44843;DHT22;31884;52.538;13.820;2023-05-09T02:54:55;6.00;85.70
44843;DHT22;31884;52.538;13.820;2023-05-09T02:57:21;5.90;85.10
44843;DHT22;31884;52.538;13.820;2023-05-09T02:59:46;5.90;89.10
44843;DHT22;31884;52.538;13.820;2023-05-09T03:02:12;5.90;89.00
44843;DHT22;31884;52.538;13.820;2023-05-09T03:04:37;5.80;88.20
44843;DHT22;31884;52.538;13.820;2023-05-09T03:07:03;5.70;89.10
44843;DHT22;31884;52.538;13.820;2023-05-09T03:09:29;5.70;90.50
44843;DHT22;31884;52.538;13.820;2023-05-09T03:11:54;5.60;89.60
44843;DHT22;31884;52.538;13.820;2023-05-09T03:14:21;5.60;90.30
44843;DHT22;31884;52.538;13.820;2023-05-09T03:16:46;5.50;90.80
44843;DHT22;31884;52.538;13.820;2023-05-09T03:19:12;5.50;92.30
44843;DHT22;31884;52.538;13.820;2023-05-09T03:21:37;5.50;92.30
44843;DHT22;31884;52.538;13.820;2023-05-09T03:24:03;5.50;92.40
44843;DHT22;31884;52.538;13.820;2023-05-09T03:26:29;5.50;92.10
44843;DHT22;31884;52.538;13.820;2023-05-09T03:28:55;5.50;92.40
44843;DHT22;31884;52.538;13.820;2023-05-09T03:31:20;5.40;92.00
44843;DHT22;31884;52.538;13.820;2023-05-09T03:33:46;5.40;91.50
44843;DHT22;31884;52.538;13.820;2023-05-09T03:36:11;5.40;92.50
44843;DHT22;31884;52.538;13.820;2023-05-09T03:38:37;5.40;91.40
44843;DHT22;31884;52.538;13.820;2023-05-09T03:41:03;5.40;92.90
44843;DHT22;31884;52.538;13.820;2023-05-09T03:43:28;5.50;92.70
44843;DHT22;31884;52.538;13.820;2023-05-09T03:45:54;5.50;92.00
44843;DHT22;31884;52.538;13.820;2023-05-09T03:48:19;5.50;92.20
44843;DHT22;31884;52.538;13.820;2023-05-09T03:50:44;5.60;92.20
44843;DHT22;31884;52.538;13.820;2023-05-09T03:53:10;5.60;91.60
44843;DHT22;31884;52.538;13.820;2023-05-09T03:55:35;5.70;92.00
44843;DHT22;31884;52.538;13.820;2023-05-09T03:58:02;5.70;92.00
44843;DHT22;31884;52.538;13.820;2023-05-09T04:00:27;5.80;91.00
44843;DHT22;31884;52.538;13.820;2023-05-09T04:02:53;5.80;90.60
44843;DHT22;31884;52.538;13.820;2023-05-09T04:05:19;5.90;90.70
44843;DHT22;31884;52.538;13.820;2023-05-09T04:07:45;6.10;90.20
44843;DHT22;31884;52.538;13.820;2023-05-09T04:10:10;6.70;87.30
44843;DHT22;31884;52.538;13.820;2023-05-09T04:12:36;7.70;80.10
44843;DHT22;31884;52.538;13.820;2023-05-09T04:15:01;8.60;71.80
44843;DHT22;31884;52.538;13.820;2023-05-09T04:17:27;9.60;68.20
44843;DHT22;31884;52.538;13.820;2023-05-09T04:19:53;10.40;63.00
44843;DHT22;31884;52.538;13.820;2023-05-09T04:22:18;11.10;59.10
44843;DHT22;31884;52.538;13.820;2023-05-09T04:24:44;11.60;50.00
44843;DHT22;31884;52.538;13.820;2023-05-09T04:27:09;12.20;49.80
44843;DHT22;31884;52.538;13.820;2023-05-09T04:29:35;12.70;44.00
44843;DHT22;31884;52.538;13.820;2023-05-09T04:32:01;12.90;43.00
44843;DHT22;31884;52.538;13.820;2023-05-09T04:34:27;13.50;39.80
44843;DHT22;31884;52.538;13.820;2023-05-09T04:36:54;13.70;38.50
44843;DHT22;31884;52.538;13.820;2023-05-09T04:39:19;14.20;36.50
44843;DHT22;31884;52.538;13.820;2023-05-09T04:41:45;14.40;31.60
44843;DHT22;31884;52.538;13.820;2023-05-09T04:44:12;14.50;34.80
44843;DHT22;31884;52.538;13.820;2023-05-09T04:46:38;14.60;29.00
44843;DHT22;31884;52.538;13.820;2023-05-09T04:49:03;14.90;29.00
44843;DHT22;31884;52.538;13.820;2023-05-09T04:51:29;15.40;30.60
44843;DHT22;31884;52.538;13.820;2023-05-09T04:53:54;15.80;26.10
44843;DHT22;31884;52.538;13.820;2023-05-09T04:56:20;16.30;26.80
44843;DHT22;31884;52.538;13.820;2023-05-09T04:58:46;16.80;26.50
44843;DHT22;31884;52.538;13.820;2023-05-09T05:01:11;17.50;23.60
44843;DHT22;31884;52.538;13.820;2023-05-09T05:03:37;17.60;23.10
44843;DHT22;31884;52.538;13.820;2023-05-09T05:06:02;17.80;20.70
44843;DHT22;31884;52.538;13.820;2023-05-09T05:08:28;18.10;16.30
44843;DHT22;31884;52.538;13.820;2023-05-09T05:10:53;18.00;19.70
44843;DHT22;31884;52.538;13.820;2023-05-09T05:13:19;18.20;16.90
44843;DHT22;31884;52.538;13.820;2023-05-09T05:15:45;18.50;18.60
44843;DHT22;31884;52.538;13.820;2023-05-09T05:18:11;18.90;17.50
44843;DHT22;31884;52.538;13.820;2023-05-09T05:20:39;19.20;13.80
44843;DHT22;31884;52.538;13.820;2023-05-09T05:23:04;19.10;15.60
44843;DHT22;31884;52.538;13.820;2023-05-09T05:25:30;19.20;16.00
44843;DHT22;31884;52.538;13.820;2023-05-09T05:27:55;19.70;14.60
44843;DHT22;31884;52.538;13.820;2023-05-09T05:30:21;20.30;15.30
44843;DHT22;31884;52.538;13.820;2023-05-09T05:32:46;21.00;14.40
44843;DHT22;31884;52.538;13.820;2023-05-09T05:35:12;21.60;8.40
44843;DHT22;31884;52.538;13.820;2023-05-09T05:37:41;20.90;11.20
44843;DHT22;31884;52.538;13.820;2023-05-09T05:40:07;21.00;8.50
44843;DHT22;31884;52.538;13.820;2023-05-09T05:42:33;21.30;7.70
44843;DHT22;31884;52.538;13.820;2023-05-09T05:44:59;20.80;10.10
44843;DHT22;31884;52.538;13.820;2023-05-09T05:47:34;20.90;7.50
44843;DHT22;31884;52.538;13.820;2023-05-09T05:50:00;21.80;6.70
44843;DHT22;31884;52.538;13.820;2023-05-09T05:52:26;21.70;7.80
44843;DHT22;31884;52.538;13.820;2023-05-09T05:54:53;21.40;6.10
44843;DHT22;31884;52.538;13.820;2023-05-09T05:57:19;21.70;8.10
44843;DHT22;31884;52.538;13.820;2023-05-09T05:59:48;22.70;7.30
44843;DHT22;31884;52.538;13.820;2023-05-09T06:02:18;22.80;4.50
44843;DHT22;31884;52.538;13.820;2023-05-09T06:04:44;22.90;4.80
44843;DHT22;31884;52.538;13.820;2023-05-09T06:07:10;23.80;4.70
44843;DHT22;31884;52.538;13.820;2023-05-09T06:09:37;23.70;1.80
44843;DHT22;31884;52.538;13.820;2023-05-09T06:12:02;22.10;4.40
44843;DHT22;31884;52.538;13.820;2023-05-09T06:14:28;22.60;4.30
44843;DHT22;31884;52.538;13.820;2023-05-09T06:16:53;23.90;3.70
44843;DHT22;31884;52.538;13.820;2023-05-09T06:19:19;25.00;3.00
44843;DHT22;31884;52.538;13.820;2023-05-09T06:21:44;24.00;1.30
44843;DHT22;31884;52.538;13.820;2023-05-09T06:24:10;23.50;1.00
44843;DHT22;31884;52.538;13.820;2023-05-09T06:26:36;24.00;1.00
44843;DHT22;31884;52.538;13.820;2023-05-09T06:29:02;23.90;1.00
44843;DHT22;31884;52.538;13.820;2023-05-09T06:31:28;23.70;1.70
44843;DHT22;31884;52.538;13.820;2023-05-09T06:33:54;23.90;1.00
44843;DHT22;31884;52.538;13.820;2023-05-09T06:36:20;24.00;1.00
44843;DHT22;31884;52.538;13.820;2023-05-09T06:38:46;24.20;1.00
44843;DHT22;31884;52.538;13.820;2023-05-09T06:41:11;25.00;1.00
44843;DHT22;31884;52.538;13.820;2023-05-09T06:43:37;25.70;1.00
44843;DHT22;31884;52.538;13.820;2023-05-09T06:46:02;25.50;1.00
44843;DHT22;31884;52.538;13.820;2023-05-09T06:48:28;25.50;1.00
44843;DHT22;31884;52.538;13.820;2023-05-09T06:50:53;24.60;1.00
44843;DHT22;31884;52.538;13.820;2023-05-09T06:53:19;24.80;1.00
44843;DHT22;31884;52.538;13.820;2023-05-09T06:55:44;24.10;1.00
44843;DHT22;31884;52.538;13.820;2023-05-09T06:58:10;23.50;1.00
44843;DHT22;31884;52.538;13.820;2023-05-09T07:00:36;23.80;1.00
44843;DHT22;31884;52.538;13.820;2023-05-09T07:03:02;23.00;1.00
44843;DHT22;31884;52.538;13.820;2023-05-09T07:05:27;23.70;1.00
44843;DHT22;31884;52.538;13.820;2023-05-09T07:07:53;24.00;1.00
44843;DHT22;31884;52.538;13.820;2023-05-09T07:10:20;24.90;1.00
44843;DHT22;31884;52.538;13.820;2023-05-09T07:12:46;23.80;1.00
44843;DHT22;31884;52.538;13.820;2023-05-09T07:15:12;22.00;1.00
44843;DHT22;31884;52.538;13.820;2023-05-09T07:17:38;22.00;1.00
44843;DHT22;31884;52.538;13.820;2023-05-09T07:20:04;22.00;1.00
44843;DHT22;31884;52.538;13.820;2023-05-09T07:22:30;22.20;1.00
44843;DHT22;31884;52.538;13.820;2023-05-09T07:24:55;22.60;1.00
44843;DHT22;31884;52.538;13.820;2023-05-09T07:27:21;22.30;1.00
44843;DHT22;31884;52.538;13.820;2023-05-09T07:29:46;22.30;1.00
44843;DHT22;31884;52.538;13.820;2023-05-09T07:32:13;21.80;1.00
44843;DHT22;31884;52.538;13.820;2023-05-09T07:34:39;23.00;1.00
44843;DHT22;31884;52.538;13.820;2023-05-09T07:37:04;23.00;1.00
44843;DHT22;31884;52.538;13.820;2023-05-09T07:39:30;22.30;1.00
44843;DHT22;31884;52.538;13.820;2023-05-09T07:41:55;21.30;1.00
44843;DHT22;31884;52.538;13.820;2023-05-09T07:44:21;21.20;1.00
44843;DHT22;31884;52.538;13.820;2023-05-09T07:46:46;21.90;1.00
44843;DHT22;31884;52.538;13.820;2023-05-09T07:49:12;21.90;1.00
44843;DHT22;31884;52.538;13.820;2023-05-09T07:51:37;22.70;1.00
44843;DHT22;31884;52.538;13.820;2023-05-09T07:54:03;22.40;1.00
44843;DHT22;31884;52.538;13.820;2023-05-09T07:56:28;22.80;1.00
44843;DHT22;31884;52.538;13.820;2023-05-09T07:58:54;22.50;1.00
44843;DHT22;31884;52.538;13.820;2023-05-09T08:01:19;21.80;1.00
44843;DHT22;31884;52.538;13.820;2023-05-09T08:03:45;22.30;1.00
44843;DHT22;31884;52.538;13.820;2023-05-09T08:06:10;22.70;1.00
44843;DHT22;31884;52.538;13.820;2023-05-09T08:08:36;22.90;1.00
44843;DHT22;31884;52.538;13.820;2023-05-09T08:11:03;22.90;1.00
44843;DHT22;31884;52.538;13.820;2023-05-09T08:13:28;22.70;1.00
44843;DHT22;31884;52.538;13.820;2023-05-09T08:15:54;21.90;1.00
44843;DHT22;31884;52.538;13.820;2023-05-09T08:18:19;21.40;1.00
44843;DHT22;31884;52.538;13.820;2023-05-09T08:20:45;21.30;1.00
44843;DHT22;31884;52.538;13.820;2023-05-09T08:23:10;20.00;1.00
44843;DHT22;31884;52.538;13.820;2023-05-09T08:25:36;19.50;1.20
44843;DHT22;31884;52.538;13.820;2023-05-09T08:28:01;18.80;1.80
44843;DHT22;31884;52.538;13.820;2023-05-09T08:30:27;19.20;2.00
44843;DHT22;31884;52.538;13.820;2023-05-09T08:32:54;19.30;2.10
44843;DHT22;31884;52.538;13.820;2023-05-09T08:35:20;19.40;1.80
44843;DHT22;31884;52.538;13.820;2023-05-09T08:37:46;19.90;1.50
44843;DHT22;31884;52.538;13.820;2023-05-09T08:40:12;19.70;1.10
44843;DHT22;31884;52.538;13.820;2023-05-09T08:42:38;19.80;1.50
44843;DHT22;31884;52.538;13.820;2023-05-09T08:45:12;20.00;1.00
44843;DHT22;31884;52.538;13.820;2023-05-09T08:47:39;19.70;1.40
44843;DHT22;31884;52.538;13.820;2023-05-09T08:50:07;19.60;1.80
44843;DHT22;31884;52.538;13.820;2023-05-09T08:52:33;19.40;1.10
44843;DHT22;31884;52.538;13.820;2023-05-09T08:55:00;19.40;1.20
44843;DHT22;31884;52.538;13.820;2023-05-09T08:57:28;19.50;1.20
44843;DHT22;31884;52.538;13.820;2023-05-09T08:59:54;19.80;1.20
44843;DHT22;31884;52.538;13.820;2023-05-09T09:02:20;18.90;3.00
44843;DHT22;31884;52.538;13.820;2023-05-09T09:04:46;18.60;3.80
44843;DHT22;31884;52.538;13.820;2023-05-09T09:07:13;18.40;3.30
44843;DHT22;31884;52.538;13.820;2023-05-09T09:09:43;18.20;3.90
44843;DHT22;31884;52.538;13.820;2023-05-09T09:12:11;18.20;3.80
44843;DHT22;31884;52.538;13.820;2023-05-09T09:14:38;18.30;4.00
44843;DHT22;31884;52.538;13.820;2023-05-09T09:17:07;18.10;4.00
44843;DHT22;31884;52.538;13.820;2023-05-09T09:19:36;18.30;3.90
44843;DHT22;31884;52.538;13.820;2023-05-09T09:22:04;18.40;3.40
44843;DHT22;31884;52.538;13.820;2023-05-09T09:24:30;18.30;4.20
44843;DHT22;31884;52.538;13.820;2023-05-09T09:26:56;17.90;5.00
44843;DHT22;31884;52.538;13.820;2023-05-09T09:29:22;18.00;4.40
44843;DHT22;31884;52.538;13.820;2023-05-09T09:31:52;18.10;4.80
44843;DHT22;31884;52.538;13.820;2023-05-09T09:34:22;17.70;5.00
44843;DHT22;31884;52.538;13.820;2023-05-09T09:36:48;17.80;4.30
44843;DHT22;31884;52.538;13.820;2023-05-09T09:39:14;17.70;4.00
44843;DHT22;31884;52.538;13.820;2023-05-09T09:41:40;17.70;3.90
44843;DHT22;31884;52.538;13.820;2023-05-09T09:46:43;17.70;5.20
44843;DHT22;31884;52.538;13.820;2023-05-09T09:49:13;17.40;4.70
44843;DHT22;31884;52.538;13.820;2023-05-09T09:51:39;17.50;4.70
44843;DHT22;31884;52.538;13.820;2023-05-09T09:54:09;17.70;4.30
44843;DHT22;31884;52.538;13.820;2023-05-09T09:56:49;17.80;4.70
44843;DHT22;31884;52.538;13.820;2023-05-09T09:59:18;17.80;4.10
44843;DHT22;31884;52.538;13.820;2023-05-09T10:02:00;17.60;5.20
44843;DHT22;31884;52.538;13.820;2023-05-09T10:04:34;17.20;6.00
44843;DHT22;31884;52.538;13.820;2023-05-09T10:07:08;17.10;6.30
44843;DHT22;31884;52.538;13.820;2023-05-09T10:09:35;17.20;6.50
44843;DHT22;31884;52.538;13.820;2023-05-09T10:12:06;17.20;5.40
44843;DHT22;31884;52.538;13.820;2023-05-09T10:14:33;17.00;5.70
44843;DHT22;31884;52.538;13.820;2023-05-09T10:17:01;16.80;6.40
44843;DHT22;31884;52.538;13.820;2023-05-09T10:19:28;16.70;7.30
44843;DHT22;31884;52.538;13.820;2023-05-09T10:21:57;16.80;7.70
44843;DHT22;31884;52.538;13.820;2023-05-09T10:24:44;16.90;6.90
44843;DHT22;31884;52.538;13.820;2023-05-09T10:27:11;16.80;6.90
44843;DHT22;31884;52.538;13.820;2023-05-09T10:29:43;16.60;6.80
44843;DHT22;31884;52.538;13.820;2023-05-09T10:32:17;16.60;7.70
44843;DHT22;31884;52.538;13.820;2023-05-09T10:34:50;16.60;7.60
44843;DHT22;31884;52.538;13.820;2023-05-09T10:37:17;16.60;6.10
44843;DHT22;31884;52.538;13.820;2023-05-09T10:39:45;16.70;6.70
44843;DHT22;31884;52.538;13.820;2023-05-09T10:42:12;16.60;6.60
44843;DHT22;31884;52.538;13.820;2023-05-09T10:44:38;16.80;6.40
44843;DHT22;31884;52.538;13.820;2023-05-09T10:47:04;16.80;6.40
44843;DHT22;31884;52.538;13.820;2023-05-09T10:49:30;16.80;6.30
44843;DHT22;31884;52.538;13.820;2023-05-09T10:51:56;16.80;7.20
44843;DHT22;31884;52.538;13.820;2023-05-09T10:54:26;16.70;6.30
44843;DHT22;31884;52.538;13.820;2023-05-09T10:56:53;16.80;7.10
44843;DHT22;31884;52.538;13.820;2023-05-09T10:59:35;16.70;6.70
44843;DHT22;31884;52.538;13.820;2023-05-09T11:02:02;16.80;6.10
44843;DHT22;31884;52.538;13.820;2023-05-09T11:04:28;16.80;5.80
44843;DHT22;31884;52.538;13.820;2023-05-09T11:06:55;16.80;6.20
44843;DHT22;31884;52.538;13.820;2023-05-09T11:09:31;16.90;6.30
44843;DHT22;31884;52.538;13.820;2023-05-09T11:11:59;17.10;6.60
44843;DHT22;31884;52.538;13.820;2023-05-09T11:17:01;17.00;6.60
44843;DHT22;31884;52.538;13.820;2023-05-09T11:22:15;17.10;6.10
44843;DHT22;31884;52.538;13.820;2023-05-09T11:24:44;17.10;6.20
44843;DHT22;31884;52.538;13.820;2023-05-09T11:29:51;17.10;5.40
44843;DHT22;31884;52.538;13.820;2023-05-09T11:32:18;17.00;5.70
44843;DHT22;31884;52.538;13.820;2023-05-09T11:34:44;16.90;5.70
44843;DHT22;31884;52.538;13.820;2023-05-09T11:37:11;17.00;5.20
44843;DHT22;31884;52.538;13.820;2023-05-09T11:40:00;17.10;5.80
44843;DHT22;31884;52.538;13.820;2023-05-09T11:42:29;17.20;6.20
44843;DHT22;31884;52.538;13.820;2023-05-09T11:44:56;17.20;6.10
44843;DHT22;31884;52.538;13.820;2023-05-09T11:47:22;17.30;6.00
44843;DHT22;31884;52.538;13.820;2023-05-09T11:49:48;17.20;5.80
44843;DHT22;31884;52.538;13.820;2023-05-09T11:52:17;17.30;6.20
44843;DHT22;31884;52.538;13.820;2023-05-09T11:54:43;17.30;6.70
44843;DHT22;31884;52.538;13.820;2023-05-09T11:57:09;17.40;6.40
44843;DHT22;31884;52.538;13.820;2023-05-09T11:59:35;17.40;5.70
44843;DHT22;31884;52.538;13.820;2023-05-09T12:02:06;17.40;6.70
44843;DHT22;31884;52.538;13.820;2023-05-09T12:04:32;17.50;5.70
44843;DHT22;31884;52.538;13.820;2023-05-09T12:06:58;17.40;5.60
44843;DHT22;31884;52.538;13.820;2023-05-09T12:09:34;17.30;5.40
44843;DHT22;31884;52.538;13.820;2023-05-09T12:12:10;17.40;5.10
44843;DHT22;31884;52.538;13.820;2023-05-09T12:14:36;17.40;5.40
44843;DHT22;31884;52.538;13.820;2023-05-09T12:17:02;17.50;5.60
44843;DHT22;31884;52.538;13.820;2023-05-09T12:19:28;17.50;5.40
44843;DHT22;31884;52.538;13.820;2023-05-09T12:21:54;17.50;5.50
44843;DHT22;31884;52.538;13.820;2023-05-09T12:24:22;17.50;5.10
44843;DHT22;31884;52.538;13.820;2023-05-09T12:26:48;17.40;5.20
44843;DHT22;31884;52.538;13.820;2023-05-09T12:29:14;17.40;5.40
44843;DHT22;31884;52.538;13.820;2023-05-09T12:31:41;17.50;5.70
44843;DHT22;31884;52.538;13.820;2023-05-09T12:34:07;17.50;5.20
44843;DHT22;31884;52.538;13.820;2023-05-09T12:36:34;17.60;5.20
44843;DHT22;31884;52.538;13.820;2023-05-09T12:39:00;17.60;5.30
44843;DHT22;31884;52.538;13.820;2023-05-09T12:41:26;17.70;5.60
44843;DHT22;31884;52.538;13.820;2023-05-09T12:43:53;17.70;5.40
44843;DHT22;31884;52.538;13.820;2023-05-09T12:46:20;17.80;5.80
44843;DHT22;31884;52.538;13.820;2023-05-09T12:48:45;17.90;5.40
44843;DHT22;31884;52.538;13.820;2023-05-09T12:51:19;18.00;5.10
44843;DHT22;31884;52.538;13.820;2023-05-09T12:53:45;18.00;4.90
44843;DHT22;31884;52.538;13.820;2023-05-09T12:58:37;17.90;4.90
44843;DHT22;31884;52.538;13.820;2023-05-09T13:01:04;17.90;5.60
44843;DHT22;31884;52.538;13.820;2023-05-09T13:03:30;17.70;5.40
44843;DHT22;31884;52.538;13.820;2023-05-09T13:06:03;17.80;6.00
44843;DHT22;31884;52.538;13.820;2023-05-09T13:08:29;17.80;6.00
44843;DHT22;31884;52.538;13.820;2023-05-09T13:10:55;17.80;6.20
44843;DHT22;31884;52.538;13.820;2023-05-09T13:13:27;17.80;6.20
44843;DHT22;31884;52.538;13.820;2023-05-09T13:15:53;17.80;6.40
44843;DHT22;31884;52.538;13.820;2023-05-09T13:18:19;17.80;6.70
44843;DHT22;31884;52.538;13.820;2023-05-09T13:20:46;17.80;5.60
44843;DHT22;31884;52.538;13.820;2023-05-09T13:23:11;17.90;6.00
44843;DHT22;31884;52.538;13.820;2023-05-09T13:25:37;17.80;6.40
44843;DHT22;31884;52.538;13.820;2023-05-09T13:28:02;17.90;6.40
44843;DHT22;31884;52.538;13.820;2023-05-09T13:30:29;17.90;6.10
44843;DHT22;31884;52.538;13.820;2023-05-09T13:32:54;17.90;6.30
44843;DHT22;31884;52.538;13.820;2023-05-09T13:35:20;17.90;5.20
44843;DHT22;31884;52.538;13.820;2023-05-09T13:37:45;17.90;6.10
44843;DHT22;31884;52.538;13.820;2023-05-09T13:40:11;18.00;6.00
44843;DHT22;31884;52.538;13.820;2023-05-09T13:42:37;18.10;5.40
44843;DHT22;31884;52.538;13.820;2023-05-09T13:45:03;18.10;6.00
44843;DHT22;31884;52.538;13.820;2023-05-09T13:47:29;18.10;5.30
44843;DHT22;31884;52.538;13.820;2023-05-09T13:49:54;18.10;4.90
44843;DHT22;31884;52.538;13.820;2023-05-09T13:52:20;18.10;5.70
44843;DHT22;31884;52.538;13.820;2023-05-09T13:54:45;18.20;6.00
44843;DHT22;31884;52.538;13.820;2023-05-09T13:57:11;18.30;5.80
44843;DHT22;31884;52.538;13.820;2023-05-09T13:59:37;18.30;5.50
44843;DHT22;31884;52.538;13.820;2023-05-09T14:02:06;18.20;5.80
44843;DHT22;31884;52.538;13.820;2023-05-09T14:04:32;18.20;5.70
44843;DHT22;31884;52.538;13.820;2023-05-09T14:06:58;18.30;5.30
44843;DHT22;31884;52.538;13.820;2023-05-09T14:09:24;18.40;5.50
44843;DHT22;31884;52.538;13.820;2023-05-09T14:11:51;18.30;5.30
44843;DHT22;31884;52.538;13.820;2023-05-09T14:14:21;18.40;6.00
44843;DHT22;31884;52.538;13.820;2023-05-09T14:16:47;18.40;5.90
44843;DHT22;31884;52.538;13.820;2023-05-09T14:19:13;18.40;5.10
44843;DHT22;31884;52.538;13.820;2023-05-09T14:21:40;18.40;5.40
44843;DHT22;31884;52.538;13.820;2023-05-09T14:24:07;18.40;6.80
44843;DHT22;31884;52.538;13.820;2023-05-09T14:26:33;18.40;5.50
44843;DHT22;31884;52.538;13.820;2023-05-09T14:28:59;18.40;5.40
44843;DHT22;31884;52.538;13.820;2023-05-09T14:31:25;18.40;6.20
44843;DHT22;31884;52.538;13.820;2023-05-09T14:33:50;18.50;6.30
44843;DHT22;31884;52.538;13.820;2023-05-09T14:36:16;18.50;6.30
44843;DHT22;31884;52.538;13.820;2023-05-09T14:38:41;18.50;5.00
44843;DHT22;31884;52.538;13.820;2023-05-09T14:41:07;18.40;4.50
44843;DHT22;31884;52.538;13.820;2023-05-09T14:43:33;18.40;4.70
44843;DHT22;31884;52.538;13.820;2023-05-09T14:45:59;18.40;5.20
44843;DHT22;31884;52.538;13.820;2023-05-09T14:48:24;18.40;5.10
44843;DHT22;31884;52.538;13.820;2023-05-09T14:50:50;18.50;5.10
44843;DHT22;31884;52.538;13.820;2023-05-09T14:53:20;18.50;4.70
44843;DHT22;31884;52.538;13.820;2023-05-09T14:55:47;18.50;5.50
44843;DHT22;31884;52.538;13.820;2023-05-09T14:58:12;18.60;4.90
44843;DHT22;31884;52.538;13.820;2023-05-09T15:00:38;18.60;5.10
44843;DHT22;31884;52.538;13.820;2023-05-09T15:03:03;18.60;4.60
44843;DHT22;31884;52.538;13.820;2023-05-09T15:05:29;18.60;4.10
44843;DHT22;31884;52.538;13.820;2023-05-09T15:07:55;18.60;4.00
44843;DHT22;31884;52.538;13.820;2023-05-09T15:10:20;18.60;4.20
44843;DHT22;31884;52.538;13.820;2023-05-09T15:12:46;18.60;4.40
44843;DHT22;31884;52.538;13.820;2023-05-09T15:15:13;18.70;4.30
44843;DHT22;31884;52.538;13.820;2023-05-09T15:17:39;18.70;4.30
44843;DHT22;31884;52.538;13.820;2023-05-09T15:20:05;18.70;4.80
44843;DHT22;31884;52.538;13.820;2023-05-09T15:22:31;18.70;5.20
44843;DHT22;31884;52.538;13.820;2023-05-09T15:24:58;18.60;5.20
44843;DHT22;31884;52.538;13.820;2023-05-09T15:27:24;18.60;5.70
44843;DHT22;31884;52.538;13.820;2023-05-09T15:29:50;18.50;6.20
44843;DHT22;31884;52.538;13.820;2023-05-09T15:32:15;18.50;5.60
44843;DHT22;31884;52.538;13.820;2023-05-09T15:34:41;18.50;6.00
44843;DHT22;31884;52.538;13.820;2023-05-09T15:37:06;18.50;6.30
44843;DHT22;31884;52.538;13.820;2023-05-09T15:39:33;18.40;5.60
44843;DHT22;31884;52.538;13.820;2023-05-09T15:41:59;18.40;5.60
44843;DHT22;31884;52.538;13.820;2023-05-09T15:44:25;18.40;5.40
44843;DHT22;31884;52.538;13.820;2023-05-09T15:46:51;18.40;5.70
44843;DHT22;31884;52.538;13.820;2023-05-09T15:49:16;18.40;6.30
44843;DHT22;31884;52.538;13.820;2023-05-09T15:51:42;18.40;6.00
44843;DHT22;31884;52.538;13.820;2023-05-09T15:54:08;18.40;6.20